sensor_id;sensor_type;location;lat;lon;timestamp;temperature;humidity
54168;DHT22;68429;50.958;3.592;2023-06-14T00:01:50;19.70;99.10
54168;DHT22;68429;50.958;3.592;2023-06-14T00:04:16;19.80;99.20
54168;DHT22;68429;50.958;3.592;2023-06-14T00:06:42;19.70;99.50
54168;DHT22;68429;50.958;3.592;2023-06-14T00:09:13;19.70;99.60
54168;DHT22;68429;50.958;3.592;2023-06-14T00:11:40;19.70;99.70
54168;DHT22;68429;50.958;3.592;2023-06-14T00:14:06;19.60;99.90
54168;DHT22;68429;50.958;3.592;2023-06-14T00:16:31;19.60;99.90
54168;DHT22;68429;50.958;3.592;2023-06-14T00:18:59;19.60;99.90
54168;DHT22;68429;50.958;3.592;2023-06-14T00:21:28;19.70;99.90
54168;DHT22;68429;50.958;3.592;2023-06-14T00:23:55;19.80;99.90
54168;DHT22;68429;50.958;3.592;2023-06-14T00:26:21;19.90;99.90
54168;DHT22;68429;50.958;3.592;2023-06-14T00:28:47;19.90;99.80
54168;DHT22;68429;50.958;3.592;2023-06-14T00:31:12;20.00;99.80
54168;DHT22;68429;50.958;3.592;2023-06-14T00:33:38;19.90;99.90
54168;DHT22;68429;50.958;3.592;2023-06-14T00:36:04;19.80;99.90
54168;DHT22;68429;50.958;3.592;2023-06-14T00:38:29;19.70;99.90
54168;DHT22;68429;50.958;3.592;2023-06-14T00:40:55;19.60;99.90
54168;DHT22;68429;50.958;3.592;2023-06-14T00:43:21;19.60;99.90
54168;DHT22;68429;50.958;3.592;2023-06-14T00:45:46;19.70;99.90
54168;DHT22;68429;50.958;3.592;2023-06-14T00:48:13;19.70;99.90
54168;DHT22;68429;50.958;3.592;2023-06-14T00:50:39;19.70;99.90
54168;DHT22;68429;50.958;3.592;2023-06-14T00:53:06;19.70;99.90
54168;DHT22;68429;50.958;3.592;2023-06-14T00:55:31;19.60;99.90
54168;DHT22;68429;50.958;3.592;2023-06-14T00:58:01;19.50;99.90
54168;DHT22;68429;50.958;3.592;2023-06-14T01:00:27;19.50;99.90
54168;DHT22;68429;50.958;3.592;2023-06-14T01:02:53;19.50;99.90
54168;DHT22;68429;50.958;3.592;2023-06-14T01:05:20;19.30;99.90
54168;DHT22;68429;50.958;3.592;2023-06-14T01:10:52;19.20;99.90
54168;DHT22;68429;50.958;3.592;2023-06-14T01:15:47;19.20;99.90
54168;DHT22;68429;50.958;3.592;2023-06-14T01:18:14;19.10;99.90
54168;DHT22;68429;50.958;3.592;2023-06-14T01:20:44;19.20;99.90
54168;DHT22;68429;50.958;3.592;2023-06-14T01:23:17;19.30;99.90
54168;DHT22;68429;50.958;3.592;2023-06-14T01:25:43;19.30;99.90
54168;DHT22;68429;50.958;3.592;2023-06-14T01:28:10;19.40;99.90
54168;DHT22;68429;50.958;3.592;2023-06-14T01:30:38;19.30;99.90
54168;DHT22;68429;50.958;3.592;2023-06-14T01:33:04;19.20;99.90
54168;DHT22;68429;50.958;3.592;2023-06-14T01:35:31;19.20;99.90
54168;DHT22;68429;50.958;3.592;2023-06-14T01:37:57;19.20;99.90
54168;DHT22;68429;50.958;3.592;2023-06-14T01:40:24;19.10;99.90
54168;DHT22;68429;50.958;3.592;2023-06-14T01:42:51;19.10;99.90
54168;DHT22;68429;50.958;3.592;2023-06-14T01:45:18;19.10;99.90
54168;DHT22;68429;50.958;3.592;2023-06-14T01:47:45;19.00;99.90
54168;DHT22;68429;50.958;3.592;2023-06-14T01:50:11;19.10;99.90
54168;DHT22;68429;50.958;3.592;2023-06-14T01:52:37;19.00;99.90
54168;DHT22;68429;50.958;3.592;2023-06-14T01:55:05;19.10;99.90
54168;DHT22;68429;50.958;3.592;2023-06-14T01:57:31;19.10;99.90
54168;DHT22;68429;50.958;3.592;2023-06-14T01:59:56;19.10;99.90
54168;DHT22;68429;50.958;3.592;2023-06-14T02:02:22;19.10;99.90
54168;DHT22;68429;50.958;3.592;2023-06-14T02:04:48;19.00;99.90
54168;DHT22;68429;50.958;3.592;2023-06-14T02:07:14;19.00;99.90
54168;DHT22;68429;50.958;3.592;2023-06-14T02:09:43;19.10;99.90
54168;DHT22;68429;50.958;3.592;2023-06-14T02:12:09;19.10;99.90
54168;DHT22;68429;50.958;3.592;2023-06-14T02:14:36;19.00;99.90
54168;DHT22;68429;50.958;3.592;2023-06-14T02:17:01;18.90;99.90
54168;DHT22;68429;50.958;3.592;2023-06-14T02:19:27;18.90;99.90
54168;DHT22;68429;50.958;3.592;2023-06-14T02:21:53;18.80;99.90
54168;DHT22;68429;50.958;3.592;2023-06-14T02:24:18;18.80;99.90
54168;DHT22;68429;50.958;3.592;2023-06-14T02:26:44;18.90;99.90
54168;DHT22;68429;50.958;3.592;2023-06-14T02:29:10;18.80;99.90
54168;DHT22;68429;50.958;3.592;2023-06-14T02:31:38;18.80;99.90
54168;DHT22;68429;50.958;3.592;2023-06-14T02:34:04;18.80;99.90
54168;DHT22;68429;50.958;3.592;2023-06-14T02:36:30;18.70;99.90
54168;DHT22;68429;50.958;3.592;2023-06-14T02:38:56;18.70;99.90
54168;DHT22;68429;50.958;3.592;2023-06-14T02:41:23;18.50;99.90
54168;DHT22;68429;50.958;3.592;2023-06-14T02:43:49;18.30;99.90
54168;DHT22;68429;50.958;3.592;2023-06-14T02:46:15;18.40;99.90
54168;DHT22;68429;50.958;3.592;2023-06-14T02:48:41;18.40;99.90
54168;DHT22;68429;50.958;3.592;2023-06-14T02:51:06;18.30;99.90
54168;DHT22;68429;50.958;3.592;2023-06-14T02:53:34;18.40;99.90
54168;DHT22;68429;50.958;3.592;2023-06-14T02:56:00;18.40;99.90
54168;DHT22;68429;50.958;3.592;2023-06-14T02:58:26;18.40;99.90
54168;DHT22;68429;50.958;3.592;2023-06-14T03:00:52;18.50;99.90
54168;DHT22;68429;50.958;3.592;2023-06-14T03:03:21;18.50;99.90
54168;DHT22;68429;50.958;3.592;2023-06-14T03:05:48;18.60;99.90
54168;DHT22;68429;50.958;3.592;2023-06-14T03:08:15;18.60;99.90
54168;DHT22;68429;50.958;3.592;2023-06-14T03:10:47;18.30;99.90
54168;DHT22;68429;50.958;3.592;2023-06-14T03:13:13;18.20;99.90
54168;DHT22;68429;50.958;3.592;2023-06-14T03:15:39;18.30;99.90
54168;DHT22;68429;50.958;3.592;2023-06-14T03:18:10;18.30;99.90
54168;DHT22;68429;50.958;3.592;2023-06-14T03:20:38;18.30;99.90
54168;DHT22;68429;50.958;3.592;2023-06-14T03:23:04;18.20;99.90
54168;DHT22;68429;50.958;3.592;2023-06-14T03:25:31;18.20;99.90
54168;DHT22;68429;50.958;3.592;2023-06-14T03:27:57;18.30;99.90
54168;DHT22;68429;50.958;3.592;2023-06-14T03:30:23;18.10;99.90
54168;DHT22;68429;50.958;3.592;2023-06-14T03:32:49;18.00;99.90
54168;DHT22;68429;50.958;3.592;2023-06-14T03:35:17;18.10;99.90
54168;DHT22;68429;50.958;3.592;2023-06-14T03:37:46;18.00;99.90
54168;DHT22;68429;50.958;3.592;2023-06-14T03:40:14;18.00;99.90
54168;DHT22;68429;50.958;3.592;2023-06-14T03:42:40;18.00;99.90
54168;DHT22;68429;50.958;3.592;2023-06-14T03:45:06;18.00;99.90
54168;DHT22;68429;50.958;3.592;2023-06-14T03:47:32;18.00;99.90
54168;DHT22;68429;50.958;3.592;2023-06-14T03:49:58;17.80;99.90
54168;DHT22;68429;50.958;3.592;2023-06-14T03:52:24;17.60;99.90
54168;DHT22;68429;50.958;3.592;2023-06-14T03:54:50;17.60;99.90
54168;DHT22;68429;50.958;3.592;2023-06-14T03:57:17;17.60;99.90
54168;DHT22;68429;50.958;3.592;2023-06-14T03:59:43;17.70;99.90
54168;DHT22;68429;50.958;3.592;2023-06-14T04:02:09;17.60;99.90
54168;DHT22;68429;50.958;3.592;2023-06-14T04:04:35;17.60;99.90
54168;DHT22;68429;50.958;3.592;2023-06-14T04:07:01;17.70;99.90
54168;DHT22;68429;50.958;3.592;2023-06-14T04:09:29;17.90;99.90
54168;DHT22;68429;50.958;3.592;2023-06-14T04:11:55;17.80;99.90
54168;DHT22;68429;50.958;3.592;2023-06-14T04:14:21;17.80;99.90
54168;DHT22;68429;50.958;3.592;2023-06-14T04:16:48;17.80;99.80
54168;DHT22;68429;50.958;3.592;2023-06-14T04:19:15;17.80;99.50
54168;DHT22;68429;50.958;3.592;2023-06-14T04:21:41;17.70;99.90
54168;DHT22;68429;50.958;3.592;2023-06-14T04:24:07;17.90;99.80
54168;DHT22;68429;50.958;3.592;2023-06-14T04:26:39;18.00;99.60
54168;DHT22;68429;50.958;3.592;2023-06-14T04:29:05;18.10;99.30
54168;DHT22;68429;50.958;3.592;2023-06-14T04:31:31;18.20;98.80
54168;DHT22;68429;50.958;3.592;2023-06-14T04:33:59;18.00;99.50
54168;DHT22;68429;50.958;3.592;2023-06-14T04:36:28;18.00;99.20
54168;DHT22;68429;50.958;3.592;2023-06-14T04:38:53;18.00;99.60
54168;DHT22;68429;50.958;3.592;2023-06-14T04:41:22;18.00;99.10
54168;DHT22;68429;50.958;3.592;2023-06-14T04:43:54;18.10;99.20
54168;DHT22;68429;50.958;3.592;2023-06-14T04:46:19;18.20;98.60
54168;DHT22;68429;50.958;3.592;2023-06-14T04:48:45;18.20;98.90
54168;DHT22;68429;50.958;3.592;2023-06-14T04:51:13;18.20;98.90
54168;DHT22;68429;50.958;3.592;2023-06-14T04:53:38;18.30;98.80
54168;DHT22;68429;50.958;3.592;2023-06-14T04:56:04;18.30;99.00
54168;DHT22;68429;50.958;3.592;2023-06-14T04:58:30;18.40;98.50
54168;DHT22;68429;50.958;3.592;2023-06-14T05:00:56;18.50;98.20
54168;DHT22;68429;50.958;3.592;2023-06-14T05:03:25;18.50;98.20
54168;DHT22;68429;50.958;3.592;2023-06-14T05:05:52;18.80;97.80
54168;DHT22;68429;50.958;3.592;2023-06-14T05:08:19;18.90;97.30
54168;DHT22;68429;50.958;3.592;2023-06-14T05:10:45;18.80;97.80
54168;DHT22;68429;50.958;3.592;2023-06-14T05:13:11;18.80;97.90
54168;DHT22;68429;50.958;3.592;2023-06-14T05:15:37;19.00;97.30
54168;DHT22;68429;50.958;3.592;2023-06-14T05:18:02;19.30;96.10
54168;DHT22;68429;50.958;3.592;2023-06-14T05:20:28;19.30;96.20
54168;DHT22;68429;50.958;3.592;2023-06-14T05:22:54;19.40;96.30
54168;DHT22;68429;50.958;3.592;2023-06-14T05:25:20;19.30;96.40
54168;DHT22;68429;50.958;3.592;2023-06-14T05:27:47;19.40;96.30
54168;DHT22;68429;50.958;3.592;2023-06-14T05:30:14;19.50;96.40
54168;DHT22;68429;50.958;3.592;2023-06-14T05:32:40;19.50;96.80
54168;DHT22;68429;50.958;3.592;2023-06-14T05:35:06;19.60;95.30
54168;DHT22;68429;50.958;3.592;2023-06-14T05:37:32;19.80;95.50
54168;DHT22;68429;50.958;3.592;2023-06-14T05:39:58;19.90;95.30
54168;DHT22;68429;50.958;3.592;2023-06-14T05:42:23;19.80;95.70
54168;DHT22;68429;50.958;3.592;2023-06-14T05:44:49;20.00;96.30
54168;DHT22;68429;50.958;3.592;2023-06-14T05:47:15;20.20;94.80
54168;DHT22;68429;50.958;3.592;2023-06-14T05:49:41;20.30;94.20
54168;DHT22;68429;50.958;3.592;2023-06-14T05:52:08;20.20;94.40
54168;DHT22;68429;50.958;3.592;2023-06-14T05:54:33;20.40;93.90
54168;DHT22;68429;50.958;3.592;2023-06-14T05:56:59;20.50;93.00
54168;DHT22;68429;50.958;3.592;2023-06-14T05:59:30;20.50;93.30
54168;DHT22;68429;50.958;3.592;2023-06-14T06:01:55;20.70;92.90
54168;DHT22;68429;50.958;3.592;2023-06-14T06:04:21;20.80;92.60
54168;DHT22;68429;50.958;3.592;2023-06-14T06:06:47;20.70;92.30
54168;DHT22;68429;50.958;3.592;2023-06-14T06:09:13;20.80;92.60
54168;DHT22;68429;50.958;3.592;2023-06-14T06:11:40;20.70;92.30
54168;DHT22;68429;50.958;3.592;2023-06-14T06:14:06;20.70;92.40
54168;DHT22;68429;50.958;3.592;2023-06-14T06:16:32;20.60;92.30
54168;DHT22;68429;50.958;3.592;2023-06-14T06:18:58;20.50;92.30
54168;DHT22;68429;50.958;3.592;2023-06-14T06:21:24;20.70;92.30
54168;DHT22;68429;50.958;3.592;2023-06-14T06:23:49;21.50;92.10
54168;DHT22;68429;50.958;3.592;2023-06-14T06:26:17;22.00;90.80
54168;DHT22;68429;50.958;3.592;2023-06-14T06:28:43;22.20;89.90
54168;DHT22;68429;50.958;3.592;2023-06-14T06:31:09;22.50;89.30
54168;DHT22;68429;50.958;3.592;2023-06-14T06:33:36;22.70;89.10
54168;DHT22;68429;50.958;3.592;2023-06-14T06:36:02;22.90;88.20
54168;DHT22;68429;50.958;3.592;2023-06-14T06:38:28;22.30;89.40
54168;DHT22;68429;50.958;3.592;2023-06-14T06:40:54;22.20;90.20
54168;DHT22;68429;50.958;3.592;2023-06-14T06:43:20;21.90;90.00
54168;DHT22;68429;50.958;3.592;2023-06-14T06:45:45;21.90;90.20
54168;DHT22;68429;50.958;3.592;2023-06-14T06:48:11;21.70;90.70
54168;DHT22;68429;50.958;3.592;2023-06-14T06:50:37;22.00;90.50
54168;DHT22;68429;50.958;3.592;2023-06-14T06:53:03;22.10;90.40
54168;DHT22;68429;50.958;3.592;2023-06-14T06:55:30;22.00;90.00
54168;DHT22;68429;50.958;3.592;2023-06-14T06:57:56;21.90;90.40
54168;DHT22;68429;50.958;3.592;2023-06-14T07:00:21;22.40;90.10
54168;DHT22;68429;50.958;3.592;2023-06-14T07:02:47;23.20;87.60
54168;DHT22;68429;50.958;3.592;2023-06-14T07:05:13;23.30;86.70
54168;DHT22;68429;50.958;3.592;2023-06-14T07:07:39;23.40;87.00
54168;DHT22;68429;50.958;3.592;2023-06-14T07:10:05;23.30;87.80
54168;DHT22;68429;50.958;3.592;2023-06-14T07:12:31;23.00;88.00
54168;DHT22;68429;50.958;3.592;2023-06-14T07:15:01;23.10;88.70
54168;DHT22;68429;50.958;3.592;2023-06-14T07:17:27;22.80;88.80
54168;DHT22;68429;50.958;3.592;2023-06-14T07:19:53;22.80;89.80
54168;DHT22;68429;50.958;3.592;2023-06-14T07:22:19;23.00;87.90
54168;DHT22;68429;50.958;3.592;2023-06-14T07:24:45;22.90;86.30
54168;DHT22;68429;50.958;3.592;2023-06-14T07:27:11;22.90;87.90
54168;DHT22;68429;50.958;3.592;2023-06-14T07:29:38;22.90;88.20
54168;DHT22;68429;50.958;3.592;2023-06-14T07:32:05;23.10;87.20
54168;DHT22;68429;50.958;3.592;2023-06-14T07:34:31;23.10;87.80
54168;DHT22;68429;50.958;3.592;2023-06-14T07:36:56;23.10;86.80
54168;DHT22;68429;50.958;3.592;2023-06-14T07:39:22;23.40;86.70
54168;DHT22;68429;50.958;3.592;2023-06-14T07:41:49;23.30;85.70
54168;DHT22;68429;50.958;3.592;2023-06-14T07:44:15;23.40;85.70
54168;DHT22;68429;50.958;3.592;2023-06-14T07:46:41;23.50;85.30
54168;DHT22;68429;50.958;3.592;2023-06-14T07:49:07;23.50;85.80
54168;DHT22;68429;50.958;3.592;2023-06-14T07:51:33;23.40;85.20
54168;DHT22;68429;50.958;3.592;2023-06-14T07:53:59;23.50;85.80
54168;DHT22;68429;50.958;3.592;2023-06-14T07:56:27;23.70;86.50
54168;DHT22;68429;50.958;3.592;2023-06-14T07:58:53;24.10;84.10
54168;DHT22;68429;50.958;3.592;2023-06-14T08:01:19;24.10;84.80
54168;DHT22;68429;50.958;3.592;2023-06-14T08:03:45;24.30;82.90
54168;DHT22;68429;50.958;3.592;2023-06-14T08:06:11;24.50;82.70
54168;DHT22;68429;50.958;3.592;2023-06-14T08:08:37;24.50;82.70
54168;DHT22;68429;50.958;3.592;2023-06-14T08:11:03;24.50;82.50
54168;DHT22;68429;50.958;3.592;2023-06-14T08:13:28;24.60;83.70
54168;DHT22;68429;50.958;3.592;2023-06-14T08:15:54;24.80;82.10
54168;DHT22;68429;50.958;3.592;2023-06-14T08:18:22;24.70;83.20
54168;DHT22;68429;50.958;3.592;2023-06-14T08:20:48;25.00;80.50
54168;DHT22;68429;50.958;3.592;2023-06-14T08:23:14;25.00;80.40
54168;DHT22;68429;50.958;3.592;2023-06-14T08:25:39;25.10;79.10
54168;DHT22;68429;50.958;3.592;2023-06-14T08:28:05;24.90;79.50
54168;DHT22;68429;50.958;3.592;2023-06-14T08:30:31;25.00;77.40
54168;DHT22;68429;50.958;3.592;2023-06-14T08:32:57;25.20;77.90
54168;DHT22;68429;50.958;3.592;2023-06-14T08:35:23;25.50;77.60
54168;DHT22;68429;50.958;3.592;2023-06-14T08:37:49;25.30;78.40
54168;DHT22;68429;50.958;3.592;2023-06-14T08:42:48;25.70;77.20
54168;DHT22;68429;50.958;3.592;2023-06-14T08:45:15;25.60;78.50
54168;DHT22;68429;50.958;3.592;2023-06-14T08:47:41;25.50;76.90
54168;DHT22;68429;50.958;3.592;2023-06-14T08:50:07;25.80;77.30
54168;DHT22;68429;50.958;3.592;2023-06-14T08:52:37;26.20;77.30
54168;DHT22;68429;50.958;3.592;2023-06-14T08:55:06;26.10;77.20
54168;DHT22;68429;50.958;3.592;2023-06-14T08:57:36;25.90;78.40
54168;DHT22;68429;50.958;3.592;2023-06-14T09:00:03;26.20;76.60
54168;DHT22;68429;50.958;3.592;2023-06-14T09:02:39;26.40;77.80
54168;DHT22;68429;50.958;3.592;2023-06-14T09:05:09;26.50;75.30
54168;DHT22;68429;50.958;3.592;2023-06-14T09:07:37;26.30;73.70
54168;DHT22;68429;50.958;3.592;2023-06-14T09:10:14;26.40;73.10
54168;DHT22;68429;50.958;3.592;2023-06-14T09:12:40;26.10;72.90
54168;DHT22;68429;50.958;3.592;2023-06-14T09:15:07;26.30;74.70
54168;DHT22;68429;50.958;3.592;2023-06-14T09:17:35;26.70;73.90
54168;DHT22;68429;50.958;3.592;2023-06-14T09:20:02;26.50;72.10
54168;DHT22;68429;50.958;3.592;2023-06-14T09:22:32;26.50;72.40
54168;DHT22;68429;50.958;3.592;2023-06-14T09:24:58;26.60;73.80
54168;DHT22;68429;50.958;3.592;2023-06-14T09:27:28;26.40;70.90
54168;DHT22;68429;50.958;3.592;2023-06-14T09:29:54;26.60;72.90
54168;DHT22;68429;50.958;3.592;2023-06-14T09:32:21;26.90;70.30
54168;DHT22;68429;50.958;3.592;2023-06-14T09:34:47;26.90;69.70
54168;DHT22;68429;50.958;3.592;2023-06-14T09:37:13;26.80;69.20
54168;DHT22;68429;50.958;3.592;2023-06-14T09:39:51;26.60;71.20
54168;DHT22;68429;50.958;3.592;2023-06-14T09:42:18;26.90;71.30
54168;DHT22;68429;50.958;3.592;2023-06-14T09:44:49;27.10;71.00
54168;DHT22;68429;50.958;3.592;2023-06-14T09:47:15;27.40;69.20
54168;DHT22;68429;50.958;3.592;2023-06-14T09:49:42;27.30;69.20
54168;DHT22;68429;50.958;3.592;2023-06-14T09:52:17;27.70;69.80
54168;DHT22;68429;50.958;3.592;2023-06-14T09:54:44;28.00;69.40
54168;DHT22;68429;50.958;3.592;2023-06-14T09:57:12;28.50;66.50
54168;DHT22;68429;50.958;3.592;2023-06-14T09:59:41;28.30;67.40
54168;DHT22;68429;50.958;3.592;2023-06-14T10:02:13;28.00;67.80
54168;DHT22;68429;50.958;3.592;2023-06-14T10:04:43;28.00;68.50
54168;DHT22;68429;50.958;3.592;2023-06-14T10:07:14;28.30;67.20
54168;DHT22;68429;50.958;3.592;2023-06-14T10:09:44;28.20;66.50
54168;DHT22;68429;50.958;3.592;2023-06-14T10:12:14;28.10;66.90
54168;DHT22;68429;50.958;3.592;2023-06-14T10:14:49;28.20;67.30
54168;DHT22;68429;50.958;3.592;2023-06-14T10:17:59;28.70;67.00
54168;DHT22;68429;50.958;3.592;2023-06-14T10:20:35;28.50;64.60
54168;DHT22;68429;50.958;3.592;2023-06-14T10:23:23;28.90;64.20
54168;DHT22;68429;50.958;3.592;2023-06-14T10:25:59;28.90;64.50
54168;DHT22;68429;50.958;3.592;2023-06-14T10:28:25;30.00;64.20
54168;DHT22;68429;50.958;3.592;2023-06-14T10:31:11;30.20;63.40
54168;DHT22;68429;50.958;3.592;2023-06-14T10:33:40;30.50;62.60
54168;DHT22;68429;50.958;3.592;2023-06-14T10:41:27;30.60;62.90
54168;DHT22;68429;50.958;3.592;2023-06-14T10:46:45;33.20;61.40
54168;DHT22;68429;50.958;3.592;2023-06-14T10:49:11;31.70;61.00
54168;DHT22;68429;50.958;3.592;2023-06-14T10:51:42;31.20;60.80
54168;DHT22;68429;50.958;3.592;2023-06-14T10:54:13;32.10;61.30
54168;DHT22;68429;50.958;3.592;2023-06-14T10:56:51;32.10;60.60
54168;DHT22;68429;50.958;3.592;2023-06-14T10:59:18;32.10;60.40
54168;DHT22;68429;50.958;3.592;2023-06-14T11:01:53;31.50;60.90
54168;DHT22;68429;50.958;3.592;2023-06-14T11:04:49;33.60;59.70
54168;DHT22;68429;50.958;3.592;2023-06-14T11:12:47;29.30;61.90
54168;DHT22;68429;50.958;3.592;2023-06-14T11:15:14;30.60;61.90
54168;DHT22;68429;50.958;3.592;2023-06-14T11:17:48;31.90;60.60
54168;DHT22;68429;50.958;3.592;2023-06-14T11:20:15;33.10;59.90
54168;DHT22;68429;50.958;3.592;2023-06-14T11:22:41;32.80;59.20
54168;DHT22;68429;50.958;3.592;2023-06-14T11:25:11;32.40;59.00
54168;DHT22;68429;50.958;3.592;2023-06-14T11:27:37;32.10;60.50
54168;DHT22;68429;50.958;3.592;2023-06-14T11:30:03;31.60;60.90
54168;DHT22;68429;50.958;3.592;2023-06-14T11:32:31;31.40;60.30
54168;DHT22;68429;50.958;3.592;2023-06-14T11:34:57;30.70;59.90
54168;DHT22;68429;50.958;3.592;2023-06-14T11:37:25;29.90;60.40
54168;DHT22;68429;50.958;3.592;2023-06-14T11:39:51;29.70;61.70
54168;DHT22;68429;50.958;3.592;2023-06-14T11:42:17;29.90;61.20
54168;DHT22;68429;50.958;3.592;2023-06-14T11:44:46;30.70;60.60
54168;DHT22;68429;50.958;3.592;2023-06-14T11:47:12;30.90;61.30
54168;DHT22;68429;50.958;3.592;2023-06-14T11:49:38;31.00;61.40
54168;DHT22;68429;50.958;3.592;2023-06-14T11:52:04;31.00;61.30
54168;DHT22;68429;50.958;3.592;2023-06-14T11:54:32;31.70;60.10
54168;DHT22;68429;50.958;3.592;2023-06-14T11:56:58;32.10;61.50
54168;DHT22;68429;50.958;3.592;2023-06-14T11:59:24;31.50;60.90
54168;DHT22;68429;50.958;3.592;2023-06-14T12:01:52;30.50;61.40
54168;DHT22;68429;50.958;3.592;2023-06-14T12:04:28;29.80;61.50
54168;DHT22;68429;50.958;3.592;2023-06-14T12:06:54;30.80;62.20
54168;DHT22;68429;50.958;3.592;2023-06-14T12:09:21;30.70;60.80
54168;DHT22;68429;50.958;3.592;2023-06-14T12:11:51;31.30;60.10
54168;DHT22;68429;50.958;3.592;2023-06-14T12:14:29;32.50;59.60
54168;DHT22;68429;50.958;3.592;2023-06-14T12:17:04;32.10;58.70
54168;DHT22;68429;50.958;3.592;2023-06-14T12:19:31;32.40;59.40
54168;DHT22;68429;50.958;3.592;2023-06-14T12:21:59;32.50;58.30
54168;DHT22;68429;50.958;3.592;2023-06-14T12:24:29;31.90;58.60
54168;DHT22;68429;50.958;3.592;2023-06-14T12:26:57;31.40;59.10
54168;DHT22;68429;50.958;3.592;2023-06-14T12:29:25;31.70;59.10
54168;DHT22;68429;50.958;3.592;2023-06-14T12:31:51;31.60;60.50
54168;DHT22;68429;50.958;3.592;2023-06-14T12:34:19;33.40;58.80
54168;DHT22;68429;50.958;3.592;2023-06-14T12:36:45;34.60;57.90
54168;DHT22;68429;50.958;3.592;2023-06-14T12:39:12;33.10;57.30
54168;DHT22;68429;50.958;3.592;2023-06-14T12:41:38;34.00;58.40
54168;DHT22;68429;50.958;3.592;2023-06-14T12:44:06;32.40;58.70
54168;DHT22;68429;50.958;3.592;2023-06-14T12:46:32;30.80;60.00
54168;DHT22;68429;50.958;3.592;2023-06-14T12:48:58;31.00;60.40
54168;DHT22;68429;50.958;3.592;2023-06-14T12:51:24;31.70;59.60
54168;DHT22;68429;50.958;3.592;2023-06-14T12:53:51;31.10;59.70
54168;DHT22;68429;50.958;3.592;2023-06-14T12:56:17;31.00;59.10
54168;DHT22;68429;50.958;3.592;2023-06-14T12:58:42;32.00;58.80
54168;DHT22;68429;50.958;3.592;2023-06-14T13:01:08;32.20;59.00
54168;DHT22;68429;50.958;3.592;2023-06-14T13:03:34;31.80;58.90
54168;DHT22;68429;50.958;3.592;2023-06-14T13:06:00;31.50;60.30
54168;DHT22;68429;50.958;3.592;2023-06-14T13:08:27;32.10;59.30
54168;DHT22;68429;50.958;3.592;2023-06-14T13:10:53;33.70;58.00
54168;DHT22;68429;50.958;3.592;2023-06-14T13:13:19;32.80;59.20
54168;DHT22;68429;50.958;3.592;2023-06-14T13:15:44;32.20;58.50
54168;DHT22;68429;50.958;3.592;2023-06-14T13:18:12;30.60;59.00
54168;DHT22;68429;50.958;3.592;2023-06-14T13:20:39;31.70;59.90
54168;DHT22;68429;50.958;3.592;2023-06-14T13:23:05;32.60;59.40
54168;DHT22;68429;50.958;3.592;2023-06-14T13:25:36;32.10;59.90
54168;DHT22;68429;50.958;3.592;2023-06-14T13:28:03;32.00;59.60
54168;DHT22;68429;50.958;3.592;2023-06-14T13:30:29;32.00;59.40
54168;DHT22;68429;50.958;3.592;2023-06-14T13:32:55;30.30;60.70
54168;DHT22;68429;50.958;3.592;2023-06-14T13:35:21;29.70;62.40
54168;DHT22;68429;50.958;3.592;2023-06-14T13:37:47;30.60;61.20
54168;DHT22;68429;50.958;3.592;2023-06-14T13:40:13;31.50;59.90
54168;DHT22;68429;50.958;3.592;2023-06-14T13:42:39;31.10;60.80
54168;DHT22;68429;50.958;3.592;2023-06-14T13:45:06;31.00;61.20
54168;DHT22;68429;50.958;3.592;2023-06-14T13:47:32;29.80;61.40
54168;DHT22;68429;50.958;3.592;2023-06-14T13:49:58;29.30;63.10
54168;DHT22;68429;50.958;3.592;2023-06-14T13:52:24;30.00;61.10
54168;DHT22;68429;50.958;3.592;2023-06-14T13:54:50;30.40;61.00
54168;DHT22;68429;50.958;3.592;2023-06-14T13:57:16;29.80;61.60
54168;DHT22;68429;50.958;3.592;2023-06-14T13:59:41;29.20;60.90
54168;DHT22;68429;50.958;3.592;2023-06-14T14:02:09;28.80;62.70
54168;DHT22;68429;50.958;3.592;2023-06-14T14:04:35;28.40;63.10
54168;DHT22;68429;50.958;3.592;2023-06-14T14:07:02;28.80;62.20
54168;DHT22;68429;50.958;3.592;2023-06-14T14:09:27;29.60;61.70
54168;DHT22;68429;50.958;3.592;2023-06-14T14:11:53;29.90;61.70
54168;DHT22;68429;50.958;3.592;2023-06-14T14:14:19;30.60;59.60
54168;DHT22;68429;50.958;3.592;2023-06-14T14:16:45;30.50;60.20
54168;DHT22;68429;50.958;3.592;2023-06-14T14:19:11;30.90;59.90
54168;DHT22;68429;50.958;3.592;2023-06-14T14:21:37;30.70;60.90
54168;DHT22;68429;50.958;3.592;2023-06-14T14:24:03;30.80;60.80
54168;DHT22;68429;50.958;3.592;2023-06-14T14:26:29;30.40;59.70
54168;DHT22;68429;50.958;3.592;2023-06-14T14:28:55;30.40;59.80
54168;DHT22;68429;50.958;3.592;2023-06-14T14:31:20;30.40;59.80
54168;DHT22;68429;50.958;3.592;2023-06-14T14:33:46;30.30;59.70
54168;DHT22;68429;50.958;3.592;2023-06-14T14:36:12;30.40;59.40
54168;DHT22;68429;50.958;3.592;2023-06-14T14:38:39;30.40;60.10
54168;DHT22;68429;50.958;3.592;2023-06-14T14:41:05;29.80;60.10
54168;DHT22;68429;50.958;3.592;2023-06-14T14:43:30;29.50;60.20
54168;DHT22;68429;50.958;3.592;2023-06-14T14:45:57;29.60;59.70
54168;DHT22;68429;50.958;3.592;2023-06-14T14:48:23;29.80;60.10
54168;DHT22;68429;50.958;3.592;2023-06-14T14:50:49;30.10;59.10
54168;DHT22;68429;50.958;3.592;2023-06-14T14:53:14;30.40;59.30
54168;DHT22;68429;50.958;3.592;2023-06-14T14:55:43;30.70;58.70
54168;DHT22;68429;50.958;3.592;2023-06-14T14:58:09;30.70;58.80
54168;DHT22;68429;50.958;3.592;2023-06-14T15:00:35;30.20;57.80
54168;DHT22;68429;50.958;3.592;2023-06-14T15:03:01;29.90;57.80
54168;DHT22;68429;50.958;3.592;2023-06-14T15:05:26;29.80;60.10
54168;DHT22;68429;50.958;3.592;2023-06-14T15:07:52;30.00;59.60
54168;DHT22;68429;50.958;3.592;2023-06-14T15:10:18;30.10;60.10
54168;DHT22;68429;50.958;3.592;2023-06-14T15:12:44;29.10;60.60
54168;DHT22;68429;50.958;3.592;2023-06-14T15:15:09;29.40;60.90
54168;DHT22;68429;50.958;3.592;2023-06-14T15:17:35;29.10;59.90
54168;DHT22;68429;50.958;3.592;2023-06-14T15:20:01;28.80;60.90
54168;DHT22;68429;50.958;3.592;2023-06-14T15:22:26;28.80;60.90
54168;DHT22;68429;50.958;3.592;2023-06-14T15:24:52;29.20;61.30
54168;DHT22;68429;50.958;3.592;2023-06-14T15:27:18;29.40;61.00
54168;DHT22;68429;50.958;3.592;2023-06-14T15:29:44;29.60;60.80
54168;DHT22;68429;50.958;3.592;2023-06-14T15:32:10;30.20;59.80
54168;DHT22;68429;50.958;3.592;2023-06-14T15:34:36;29.70;60.20
54168;DHT22;68429;50.958;3.592;2023-06-14T15:37:06;29.40;59.90
54168;DHT22;68429;50.958;3.592;2023-06-14T15:39:31;29.30;59.90
54168;DHT22;68429;50.958;3.592;2023-06-14T15:41:58;29.40;59.80
54168;DHT22;68429;50.958;3.592;2023-06-14T15:44:23;28.90;61.10
54168;DHT22;68429;50.958;3.592;2023-06-14T15:46:55;28.60;60.20
54168;DHT22;68429;50.958;3.592;2023-06-14T15:49:21;29.00;61.10
54168;DHT22;68429;50.958;3.592;2023-06-14T15:51:46;29.10;60.60